sensor_id;sensor_type;location;lat;lon;timestamp;temperature;humidity
75022;SHT31;63583;49.976;20.182;2022-11-20T00:01:11;-4.20;91.74
75022;SHT31;63583;49.976;20.182;2022-11-20T00:03:37;-4.20;92.07
75022;SHT31;63583;49.976;20.182;2022-11-20T00:06:05;-4.26;92.42
75022;SHT31;63583;49.976;20.182;2022-11-20T00:08:32;-4.30;92.28
75022;SHT31;63583;49.976;20.182;2022-11-20T00:11:09;-4.37;92.37
75022;SHT31;63583;49.976;20.182;2022-11-20T00:13:36;-4.39;92.55
75022;SHT31;63583;49.976;20.182;2022-11-20T00:16:05;-4.42;92.99
75022;SHT31;63583;49.976;20.182;2022-11-20T00:18:35;-4.43;93.07
75022;SHT31;63583;49.976;20.182;2022-11-20T00:21:05;-4.47;93.02
75022;SHT31;63583;49.976;20.182;2022-11-20T00:23:32;-4.47;93.45
75022;SHT31;63583;49.976;20.182;2022-11-20T00:26:02;-4.47;93.73
75022;SHT31;63583;49.976;20.182;2022-11-20T00:28:28;-4.49;93.71
75022;SHT31;63583;49.976;20.182;2022-11-20T00:31:09;-4.47;93.91
75022;SHT31;63583;49.976;20.182;2022-11-20T00:33:36;-4.52;93.63
75022;SHT31;63583;49.976;20.182;2022-11-20T00:36:09;-4.52;93.88
75022;SHT31;63583;49.976;20.182;2022-11-20T00:38:36;-4.52;93.77
75022;SHT31;63583;49.976;20.182;2022-11-20T00:41:04;-4.39;93.44
75022;SHT31;63583;49.976;20.182;2022-11-20T00:43:30;-4.52;93.42
75022;SHT31;63583;49.976;20.182;2022-11-20T00:46:04;-4.64;93.72
75022;SHT31;63583;49.976;20.182;2022-11-20T00:48:30;-4.85;94.52
75022;SHT31;63583;49.976;20.182;2022-11-20T00:50:57;-4.85;94.90
75022;SHT31;63583;49.976;20.182;2022-11-20T00:53:23;-4.80;94.74
75022;SHT31;63583;49.976;20.182;2022-11-20T00:56:00;-4.74;94.51
75022;SHT31;63583;49.976;20.182;2022-11-20T00:58:31;-4.87;93.84
75022;SHT31;63583;49.976;20.182;2022-11-20T01:01:05;-4.88;94.08
75022;SHT31;63583;49.976;20.182;2022-11-20T01:03:33;-4.88;94.25
75022;SHT31;63583;49.976;20.182;2022-11-20T01:06:00;-4.83;94.36
75022;SHT31;63583;49.976;20.182;2022-11-20T01:08:30;-4.81;94.09
75022;SHT31;63583;49.976;20.182;2022-11-20T01:11:06;-4.77;94.22
75022;SHT31;63583;49.976;20.182;2022-11-20T01:13:32;-4.73;94.01
75022;SHT31;63583;49.976;20.182;2022-11-20T01:16:12;-4.73;93.93
75022;SHT31;63583;49.976;20.182;2022-11-20T01:18:40;-4.73;93.89
75022;SHT31;63583;49.976;20.182;2022-11-20T01:21:12;-4.58;93.69
75022;SHT31;63583;49.976;20.182;2022-11-20T01:23:39;-4.39;92.91
75022;SHT31;63583;49.976;20.182;2022-11-20T01:26:08;-4.36;92.48
75022;SHT31;63583;49.976;20.182;2022-11-20T01:28:35;-4.45;92.26
75022;SHT31;63583;49.976;20.182;2022-11-20T01:31:01;-4.54;92.92
75022;SHT31;63583;49.976;20.182;2022-11-20T01:33:27;-4.58;93.30
75022;SHT31;63583;49.976;20.182;2022-11-20T01:35:53;-4.45;93.17
75022;SHT31;63583;49.976;20.182;2022-11-20T01:38:28;-4.47;92.86
75022;SHT31;63583;49.976;20.182;2022-11-20T01:40:55;-4.46;93.38
75022;SHT31;63583;49.976;20.182;2022-11-20T01:43:21;-4.54;93.87
75022;SHT31;63583;49.976;20.182;2022-11-20T01:46:18;-4.56;93.94
75022;SHT31;63583;49.976;20.182;2022-11-20T01:48:54;-4.64;93.68
75022;SHT31;63583;49.976;20.182;2022-11-20T01:51:28;-4.68;93.92
75022;SHT31;63583;49.976;20.182;2022-11-20T01:53:57;-4.63;93.89
75022;SHT31;63583;49.976;20.182;2022-11-20T01:56:25;-4.67;93.93
75022;SHT31;63583;49.976;20.182;2022-11-20T01:58:55;-4.61;93.94
75022;SHT31;63583;49.976;20.182;2022-11-20T02:01:22;-4.60;93.74
75022;SHT31;63583;49.976;20.182;2022-11-20T02:03:49;-4.66;93.76
75022;SHT31;63583;49.976;20.182;2022-11-20T02:06:25;-4.70;93.77
75022;SHT31;63583;49.976;20.182;2022-11-20T02:08:52;-4.74;93.70
75022;SHT31;63583;49.976;20.182;2022-11-20T02:11:18;-4.77;93.76
75022;SHT31;63583;49.976;20.182;2022-11-20T02:13:45;-4.80;93.67
75022;SHT31;63583;49.976;20.182;2022-11-20T02:16:15;-4.81;93.54
75022;SHT31;63583;49.976;20.182;2022-11-20T02:18:42;-4.84;93.34
75022;SHT31;63583;49.976;20.182;2022-11-20T02:21:28;-4.87;93.51
75022;SHT31;63583;49.976;20.182;2022-11-20T02:24:15;-4.84;94.00
75022;SHT31;63583;49.976;20.182;2022-11-20T02:29:42;-4.70;95.25
75022;SHT31;63583;49.976;20.182;2022-11-20T02:32:25;-4.68;94.93
75022;SHT31;63583;49.976;20.182;2022-11-20T02:34:51;-4.67;94.96
75022;SHT31;63583;49.976;20.182;2022-11-20T02:37:16;-4.66;94.69
75022;SHT31;63583;49.976;20.182;2022-11-20T02:39:45;-4.64;94.37
75022;SHT31;63583;49.976;20.182;2022-11-20T02:42:11;-4.66;94.55
75022;SHT31;63583;49.976;20.182;2022-11-20T02:44:37;-4.64;94.71
75022;SHT31;63583;49.976;20.182;2022-11-20T02:47:03;-4.60;94.86
75022;SHT31;63583;49.976;20.182;2022-11-20T02:49:28;-4.53;95.05
75022;SHT31;63583;49.976;20.182;2022-11-20T02:51:54;-4.52;95.04
75022;SHT31;63583;49.976;20.182;2022-11-20T02:54:20;-4.54;94.77
75022;SHT31;63583;49.976;20.182;2022-11-20T02:56:45;-4.57;94.61
75022;SHT31;63583;49.976;20.182;2022-11-20T02:59:11;-4.58;94.74
75022;SHT31;63583;49.976;20.182;2022-11-20T03:01:37;-4.63;94.05
75022;SHT31;63583;49.976;20.182;2022-11-20T03:04:03;-4.61;93.03
75022;SHT31;63583;49.976;20.182;2022-11-20T03:06:28;-4.76;93.09
75022;SHT31;63583;49.976;20.182;2022-11-20T03:08:54;-4.83;93.59
75022;SHT31;63583;49.976;20.182;2022-11-20T03:11:20;-4.91;93.90
75022;SHT31;63583;49.976;20.182;2022-11-20T03:13:46;-4.88;94.10
75022;SHT31;63583;49.976;20.182;2022-11-20T03:16:18;-4.95;94.32
75022;SHT31;63583;49.976;20.182;2022-11-20T03:18:44;-4.99;94.46
75022;SHT31;63583;49.976;20.182;2022-11-20T03:21:12;-5.06;94.63
75022;SHT31;63583;49.976;20.182;2022-11-20T03:23:39;-4.96;94.80
75022;SHT31;63583;49.976;20.182;2022-11-20T03:28:38;-5.09;94.88
75022;SHT31;63583;49.976;20.182;2022-11-20T03:31:13;-5.13;95.15
75022;SHT31;63583;49.976;20.182;2022-11-20T03:33:41;-5.19;95.33
75022;SHT31;63583;49.976;20.182;2022-11-20T03:36:09;-5.20;95.22
75022;SHT31;63583;49.976;20.182;2022-11-20T03:38:35;-5.20;95.18
75022;SHT31;63583;49.976;20.182;2022-11-20T03:41:07;-5.22;95.27
75022;SHT31;63583;49.976;20.182;2022-11-20T03:43:34;-5.23;95.43
75022;SHT31;63583;49.976;20.182;2022-11-20T03:45:59;-5.23;95.26
75022;SHT31;63583;49.976;20.182;2022-11-20T03:48:25;-5.25;95.27
75022;SHT31;63583;49.976;20.182;2022-11-20T03:50:52;-5.26;95.32
75022;SHT31;63583;49.976;20.182;2022-11-20T03:53:19;-5.27;95.48
75022;SHT31;63583;49.976;20.182;2022-11-20T03:55:50;-5.29;95.52
75022;SHT31;63583;49.976;20.182;2022-11-20T03:58:16;-5.15;95.80
75022;SHT31;63583;49.976;20.182;2022-11-20T04:00:43;-5.13;95.62
75022;SHT31;63583;49.976;20.182;2022-11-20T04:03:09;-5.17;95.82
75022;SHT31;63583;49.976;20.182;2022-11-20T04:05:34;-5.16;96.17
75022;SHT31;63583;49.976;20.182;2022-11-20T04:08:00;-5.16;96.12
75022;SHT31;63583;49.976;20.182;2022-11-20T04:10:26;-5.19;95.91
75022;SHT31;63583;49.976;20.182;2022-11-20T04:12:52;-5.20;95.98
75022;SHT31;63583;49.976;20.182;2022-11-20T04:15:18;-5.20;96.00
75022;SHT31;63583;49.976;20.182;2022-11-20T04:17:43;-5.17;96.27
75022;SHT31;63583;49.976;20.182;2022-11-20T04:20:09;-5.16;96.17
75022;SHT31;63583;49.976;20.182;2022-11-20T04:22:35;-5.12;96.45
75022;SHT31;63583;49.976;20.182;2022-11-20T04:25:01;-5.09;95.92
75022;SHT31;63583;49.976;20.182;2022-11-20T04:27:26;-5.13;95.42
75022;SHT31;63583;49.976;20.182;2022-11-20T04:29:52;-5.13;95.35
75022;SHT31;63583;49.976;20.182;2022-11-20T04:32:18;-5.23;95.19
75022;SHT31;63583;49.976;20.182;2022-11-20T04:34:43;-5.35;95.42
75022;SHT31;63583;49.976;20.182;2022-11-20T04:37:09;-5.42;95.17
75022;SHT31;63583;49.976;20.182;2022-11-20T04:39:35;-5.43;95.07
75022;SHT31;63583;49.976;20.182;2022-11-20T04:42:01;-5.49;95.41
75022;SHT31;63583;49.976;20.182;2022-11-20T04:44:45;-5.44;95.63
75022;SHT31;63583;49.976;20.182;2022-11-20T04:47:11;-5.36;95.33
75022;SHT31;63583;49.976;20.182;2022-11-20T04:49:37;-5.36;95.19
75022;SHT31;63583;49.976;20.182;2022-11-20T04:52:03;-5.35;95.32
75022;SHT31;63583;49.976;20.182;2022-11-20T04:54:28;-5.29;95.35
75022;SHT31;63583;49.976;20.182;2022-11-20T04:56:54;-5.42;95.07
75022;SHT31;63583;49.976;20.182;2022-11-20T04:59:20;-5.44;95.33
75022;SHT31;63583;49.976;20.182;2022-11-20T05:01:46;-5.43;95.59
75022;SHT31;63583;49.976;20.182;2022-11-20T05:04:11;-5.44;95.58
75022;SHT31;63583;49.976;20.182;2022-11-20T05:06:37;-5.46;95.46
75022;SHT31;63583;49.976;20.182;2022-11-20T05:09:03;-5.43;95.37
75022;SHT31;63583;49.976;20.182;2022-11-20T05:11:29;-5.37;95.26
75022;SHT31;63583;49.976;20.182;2022-11-20T05:13:54;-5.25;95.21
75022;SHT31;63583;49.976;20.182;2022-11-20T05:16:23;-5.16;94.11
75022;SHT31;63583;49.976;20.182;2022-11-20T05:18:50;-5.23;94.24
75022;SHT31;63583;49.976;20.182;2022-11-20T05:21:16;-5.25;94.11
75022;SHT31;63583;49.976;20.182;2022-11-20T05:23:43;-5.26;94.34
75022;SHT31;63583;49.976;20.182;2022-11-20T05:26:14;-5.23;94.20
75022;SHT31;63583;49.976;20.182;2022-11-20T05:28:40;-5.32;94.09
75022;SHT31;63583;49.976;20.182;2022-11-20T05:31:14;-5.36;94.49
75022;SHT31;63583;49.976;20.182;2022-11-20T05:33:41;-5.40;94.40
75022;SHT31;63583;49.976;20.182;2022-11-20T05:36:09;-5.43;94.54
75022;SHT31;63583;49.976;20.182;2022-11-20T05:38:34;-5.46;95.06
75022;SHT31;63583;49.976;20.182;2022-11-20T05:41:07;-5.23;95.32
75022;SHT31;63583;49.976;20.182;2022-11-20T05:43:37;-5.12;94.79
75022;SHT31;63583;49.976;20.182;2022-11-20T05:46:07;-5.04;94.52
75022;SHT31;63583;49.976;20.182;2022-11-20T05:48:34;-5.09;94.43
75022;SHT31;63583;49.976;20.182;2022-11-20T05:51:02;-5.09;94.64
75022;SHT31;63583;49.976;20.182;2022-11-20T05:53:28;-5.08;94.72
75022;SHT31;63583;49.976;20.182;2022-11-20T05:56:02;-5.15;94.62
75022;SHT31;63583;49.976;20.182;2022-11-20T05:58:28;-5.05;94.65
75022;SHT31;63583;49.976;20.182;2022-11-20T06:01:24;-4.95;94.20
75022;SHT31;63583;49.976;20.182;2022-11-20T06:03:48;-4.88;93.86
75022;SHT31;63583;49.976;20.182;2022-11-20T06:06:17;-4.80;93.20
75022;SHT31;63583;49.976;20.182;2022-11-20T06:08:44;-4.85;92.98
75022;SHT31;63583;49.976;20.182;2022-11-20T06:11:12;-4.95;92.96
75022;SHT31;63583;49.976;20.182;2022-11-20T06:13:38;-4.91;93.06
75022;SHT31;63583;49.976;20.182;2022-11-20T06:16:05;-4.92;93.38
75022;SHT31;63583;49.976;20.182;2022-11-20T06:18:31;-4.84;93.05
75022;SHT31;63583;49.976;20.182;2022-11-20T06:21:06;-4.89;93.22
75022;SHT31;63583;49.976;20.182;2022-11-20T06:23:33;-5.04;93.58
75022;SHT31;63583;49.976;20.182;2022-11-20T06:26:07;-5.04;94.21
75022;SHT31;63583;49.976;20.182;2022-11-20T06:28:33;-5.04;94.30
75022;SHT31;63583;49.976;20.182;2022-11-20T06:31:00;-5.06;93.98
75022;SHT31;63583;49.976;20.182;2022-11-20T06:33:26;-5.08;94.11
75022;SHT31;63583;49.976;20.182;2022-11-20T06:35:52;-5.09;93.90
75022;SHT31;63583;49.976;20.182;2022-11-20T06:38:17;-5.15;93.49
75022;SHT31;63583;49.976;20.182;2022-11-20T06:40:43;-5.16;94.38
75022;SHT31;63583;49.976;20.182;2022-11-20T06:43:09;-5.16;94.03
75022;SHT31;63583;49.976;20.182;2022-11-20T06:45:36;-5.25;93.00
75022;SHT31;63583;49.976;20.182;2022-11-20T06:48:02;-5.22;93.01
75022;SHT31;63583;49.976;20.182;2022-11-20T06:50:28;-5.25;92.80
75022;SHT31;63583;49.976;20.182;2022-11-20T06:52:53;-5.20;93.38
75022;SHT31;63583;49.976;20.182;2022-11-20T06:55:19;-4.96;93.75
75022;SHT31;63583;49.976;20.182;2022-11-20T06:57:45;-4.61;93.26
75022;SHT31;63583;49.976;20.182;2022-11-20T07:00:11;-4.50;92.90
75022;SHT31;63583;49.976;20.182;2022-11-20T07:02:37;-4.40;92.89
75022;SHT31;63583;49.976;20.182;2022-11-20T07:05:03;-4.42;92.93
75022;SHT31;63583;49.976;20.182;2022-11-20T07:07:29;-4.43;92.99
75022;SHT31;63583;49.976;20.182;2022-11-20T07:09:55;-4.46;93.35
75022;SHT31;63583;49.976;20.182;2022-11-20T07:12:20;-4.61;93.01
75022;SHT31;63583;49.976;20.182;2022-11-20T07:14:46;-4.58;93.47
75022;SHT31;63583;49.976;20.182;2022-11-20T07:17:12;-4.57;93.03
75022;SHT31;63583;49.976;20.182;2022-11-20T07:19:38;-4.53;92.54
75022;SHT31;63583;49.976;20.182;2022-11-20T07:22:03;-4.49;92.79
75022;SHT31;63583;49.976;20.182;2022-11-20T07:24:29;-4.39;92.63
75022;SHT31;63583;49.976;20.182;2022-11-20T07:26:55;-4.29;92.79
75022;SHT31;63583;49.976;20.182;2022-11-20T07:29:21;-4.18;93.05
75022;SHT31;63583;49.976;20.182;2022-11-20T07:31:46;-3.97;92.25
75022;SHT31;63583;49.976;20.182;2022-11-20T07:34:12;-3.91;92.09
75022;SHT31;63583;49.976;20.182;2022-11-20T07:36:39;-3.80;92.36
75022;SHT31;63583;49.976;20.182;2022-11-20T07:39:05;-3.91;93.88
75022;SHT31;63583;49.976;20.182;2022-11-20T07:41:30;-3.77;94.08
75022;SHT31;63583;49.976;20.182;2022-11-20T07:43:56;-3.64;93.53
75022;SHT31;63583;49.976;20.182;2022-11-20T07:46:22;-3.54;93.66
75022;SHT31;63583;49.976;20.182;2022-11-20T07:48:48;-3.47;93.31
75022;SHT31;63583;49.976;20.182;2022-11-20T07:51:13;-3.46;93.62
75022;SHT31;63583;49.976;20.182;2022-11-20T07:53:40;-3.57;94.05
75022;SHT31;63583;49.976;20.182;2022-11-20T07:56:05;-3.59;94.64
75022;SHT31;63583;49.976;20.182;2022-11-20T07:58:32;-3.43;94.40
75022;SHT31;63583;49.976;20.182;2022-11-20T08:01:04;-3.36;93.80
75022;SHT31;63583;49.976;20.182;2022-11-20T08:03:30;-3.28;93.19
75022;SHT31;63583;49.976;20.182;2022-11-20T08:05:59;-3.47;94.06
75022;SHT31;63583;49.976;20.182;2022-11-20T08:08:26;-3.49;95.38
75022;SHT31;63583;49.976;20.182;2022-11-20T08:10:52;-3.46;94.44
75022;SHT31;63583;49.976;20.182;2022-11-20T08:13:18;-3.36;94.29
75022;SHT31;63583;49.976;20.182;2022-11-20T08:16:02;-3.24;92.26
75022;SHT31;63583;49.976;20.182;2022-11-20T08:18:28;-3.53;93.75
75022;SHT31;63583;49.976;20.182;2022-11-20T08:20:54;-3.42;91.47
75022;SHT31;63583;49.976;20.182;2022-11-20T08:23:19;-3.53;92.04
75022;SHT31;63583;49.976;20.182;2022-11-20T08:25:49;-3.68;92.22
75022;SHT31;63583;49.976;20.182;2022-11-20T08:28:15;-3.81;93.43
75022;SHT31;63583;49.976;20.182;2022-11-20T08:30:40;-3.50;92.27
75022;SHT31;63583;49.976;20.182;2022-11-20T08:33:08;-3.57;90.51
75022;SHT31;63583;49.976;20.182;2022-11-20T08:35:38;-3.81;91.58
75022;SHT31;63583;49.976;20.182;2022-11-20T08:38:05;-3.74;91.66
75022;SHT31;63583;49.976;20.182;2022-11-20T08:40:31;-3.47;90.46
75022;SHT31;63583;49.976;20.182;2022-11-20T08:42:57;-3.73;91.06
75022;SHT31;63583;49.976;20.182;2022-11-20T08:45:23;-3.74;92.33
75022;SHT31;63583;49.976;20.182;2022-11-20T08:47:49;-3.61;91.24
75022;SHT31;63583;49.976;20.182;2022-11-20T08:50:16;-3.43;90.71
75022;SHT31;63583;49.976;20.182;2022-11-20T08:52:42;-3.39;90.17
75022;SHT31;63583;49.976;20.182;2022-11-20T08:55:08;-3.29;88.96
75022;SHT31;63583;49.976;20.182;2022-11-20T08:57:35;-3.42;89.33
75022;SHT31;63583;49.976;20.182;2022-11-20T09:00:04;-3.40;90.31
75022;SHT31;63583;49.976;20.182;2022-11-20T09:02:30;-3.29;89.04
75022;SHT31;63583;49.976;20.182;2022-11-20T09:04:55;-3.33;89.17
75022;SHT31;63583;49.976;20.182;2022-11-20T09:07:24;-3.43;90.99
75022;SHT31;63583;49.976;20.182;2022-11-20T09:09:49;-3.26;90.55
75022;SHT31;63583;49.976;20.182;2022-11-20T09:12:15;-3.12;89.34
75022;SHT31;63583;49.976;20.182;2022-11-20T09:14:41;-3.06;90.03
75022;SHT31;63583;49.976;20.182;2022-11-20T09:17:07;-3.02;90.21
75022;SHT31;63583;49.976;20.182;2022-11-20T09:19:33;-3.02;90.21
75022;SHT31;63583;49.976;20.182;2022-11-20T09:21:59;-2.87;89.06
75022;SHT31;63583;49.976;20.182;2022-11-20T09:24:26;-2.91;89.93
75022;SHT31;63583;49.976;20.182;2022-11-20T09:26:52;-2.96;91.74
75022;SHT31;63583;49.976;20.182;2022-11-20T09:29:17;-2.85;91.71
75022;SHT31;63583;49.976;20.182;2022-11-20T09:31:43;-2.75;92.83
75022;SHT31;63583;49.976;20.182;2022-11-20T09:34:09;-2.63;91.57
75022;SHT31;63583;49.976;20.182;2022-11-20T09:36:35;-2.39;90.07
75022;SHT31;63583;49.976;20.182;2022-11-20T09:39:01;-2.40;90.01
75022;SHT31;63583;49.976;20.182;2022-11-20T09:41:49;-2.23;89.55
75022;SHT31;63583;49.976;20.182;2022-11-20T09:47:17;-2.18;89.37
75022;SHT31;63583;49.976;20.182;2022-11-20T09:50:12;-2.09;89.48
75022;SHT31;63583;49.976;20.182;2022-11-20T09:55:45;-1.84;87.63
75022;SHT31;63583;49.976;20.182;2022-11-20T09:58:35;-2.12;88.62
75022;SHT31;63583;49.976;20.182;2022-11-20T10:01:31;-2.16;88.46
75022;SHT31;63583;49.976;20.182;2022-11-20T10:04:24;-2.13;88.87
75022;SHT31;63583;49.976;20.182;2022-11-20T10:09:35;-2.32;90.15
75022;SHT31;63583;49.976;20.182;2022-11-20T10:12:07;-2.26;90.08
75022;SHT31;63583;49.976;20.182;2022-11-20T10:17:51;-2.42;90.66
75022;SHT31;63583;49.976;20.182;2022-11-20T10:26:29;-1.98;89.38
75022;SHT31;63583;49.976;20.182;2022-11-20T10:29:11;-2.28;90.88
75022;SHT31;63583;49.976;20.182;2022-11-20T10:31:54;-2.28;91.09
75022;SHT31;63583;49.976;20.182;2022-11-20T10:34:27;-2.30;90.50
75022;SHT31;63583;49.976;20.182;2022-11-20T10:36:56;-2.29;90.32
75022;SHT31;63583;49.976;20.182;2022-11-20T10:42:22;-2.03;89.22
75022;SHT31;63583;49.976;20.182;2022-11-20T10:44:53;-1.98;89.19
75022;SHT31;63583;49.976;20.182;2022-11-20T10:47:28;-1.86;90.11
75022;SHT31;63583;49.976;20.182;2022-11-20T10:49:57;-1.61;88.14
75022;SHT31;63583;49.976;20.182;2022-11-20T10:52:37;-1.71;88.20
75022;SHT31;63583;49.976;20.182;2022-11-20T10:55:42;-1.84;89.67
75022;SHT31;63583;49.976;20.182;2022-11-20T10:58:14;-1.84;89.79
75022;SHT31;63583;49.976;20.182;2022-11-20T11:00:41;-1.74;89.43
75022;SHT31;63583;49.976;20.182;2022-11-20T11:03:27;-1.64;89.54
75022;SHT31;63583;49.976;20.182;2022-11-20T11:05:59;-1.44;87.65
75022;SHT31;63583;49.976;20.182;2022-11-20T11:08:28;-1.39;88.02
75022;SHT31;63583;49.976;20.182;2022-11-20T11:13:40;-1.27;87.30
75022;SHT31;63583;49.976;20.182;2022-11-20T11:16:05;-1.53;88.27
75022;SHT31;63583;49.976;20.182;2022-11-20T11:18:33;-1.51;89.90
75022;SHT31;63583;49.976;20.182;2022-11-20T11:21:00;-1.51;89.32
75022;SHT31;63583;49.976;20.182;2022-11-20T11:23:34;-1.40;89.15
75022;SHT31;63583;49.976;20.182;2022-11-20T11:26:04;-1.36;89.82
75022;SHT31;63583;49.976;20.182;2022-11-20T11:28:30;-1.29;89.63
75022;SHT31;63583;49.976;20.182;2022-11-20T11:30:57;-1.19;88.98
75022;SHT31;63583;49.976;20.182;2022-11-20T11:33:23;-1.15;90.24
75022;SHT31;63583;49.976;20.182;2022-11-20T11:35:59;-1.25;89.07
75022;SHT31;63583;49.976;20.182;2022-11-20T11:38:32;-1.42;89.46
75022;SHT31;63583;49.976;20.182;2022-11-20T11:41:00;-1.42;89.70
75022;SHT31;63583;49.976;20.182;2022-11-20T11:43:29;-1.56;90.90
75022;SHT31;63583;49.976;20.182;2022-11-20T11:48:57;-1.40;91.24
75022;SHT31;63583;49.976;20.182;2022-11-20T11:51:37;-1.17;90.37
75022;SHT31;63583;49.976;20.182;2022-11-20T11:54:16;-0.93;89.71
75022;SHT31;63583;49.976;20.182;2022-11-20T11:56:44;-0.98;89.67
75022;SHT31;63583;49.976;20.182;2022-11-20T11:59:16;-1.09;89.59
75022;SHT31;63583;49.976;20.182;2022-11-20T12:01:52;-1.00;90.31
75022;SHT31;63583;49.976;20.182;2022-11-20T12:07:25;-0.91;89.75
75022;SHT31;63583;49.976;20.182;2022-11-20T12:09:57;-0.91;90.10
75022;SHT31;63583;49.976;20.182;2022-11-20T12:12:37;-0.74;89.68
75022;SHT31;63583;49.976;20.182;2022-11-20T12:15:10;-0.70;90.29
75022;SHT31;63583;49.976;20.182;2022-11-20T12:17:38;-0.70;88.22
75022;SHT31;63583;49.976;20.182;2022-11-20T12:20:11;-0.54;89.27
75022;SHT31;63583;49.976;20.182;2022-11-20T12:22:46;-0.38;88.51
75022;SHT31;63583;49.976;20.182;2022-11-20T12:25:21;-0.51;88.70
75022;SHT31;63583;49.976;20.182;2022-11-20T12:28:10;-0.57;88.72
75022;SHT31;63583;49.976;20.182;2022-11-20T12:33:40;-0.60;89.55
75022;SHT31;63583;49.976;20.182;2022-11-20T12:36:32;-0.51;89.58
75022;SHT31;63583;49.976;20.182;2022-11-20T12:41:51;-0.45;89.15
75022;SHT31;63583;49.976;20.182;2022-11-20T12:48:23;-0.53;88.86
75022;SHT31;63583;49.976;20.182;2022-11-20T12:51:12;-0.49;89.02
75022;SHT31;63583;49.976;20.182;2022-11-20T12:53:57;-0.51;89.15
75022;SHT31;63583;49.976;20.182;2022-11-20T12:59:14;-0.41;89.03
75022;SHT31;63583;49.976;20.182;2022-11-20T13:02:23;-0.31;88.51
75022;SHT31;63583;49.976;20.182;2022-11-20T13:07:16;-0.38;88.63
75022;SHT31;63583;49.976;20.182;2022-11-20T13:09:48;-0.43;88.65
75022;SHT31;63583;49.976;20.182;2022-11-20T13:12:35;-0.45;88.67
75022;SHT31;63583;49.976;20.182;2022-11-20T13:15:23;-0.62;89.54
75022;SHT31;63583;49.976;20.182;2022-11-20T13:17:56;-0.65;89.59
75022;SHT31;63583;49.976;20.182;2022-11-20T13:20:23;-0.56;89.74
75022;SHT31;63583;49.976;20.182;2022-11-20T13:22:54;-0.61;89.69
75022;SHT31;63583;49.976;20.182;2022-11-20T13:25:34;-0.62;89.69
75022;SHT31;63583;49.976;20.182;2022-11-20T13:28:04;-0.61;89.65
75022;SHT31;63583;49.976;20.182;2022-11-20T13:30:31;-0.81;91.16
75022;SHT31;63583;49.976;20.182;2022-11-20T13:33:01;-0.77;90.41
75022;SHT31;63583;49.976;20.182;2022-11-20T13:35:35;-0.74;90.63
75022;SHT31;63583;49.976;20.182;2022-11-20T13:38:14;-0.84;90.93
75022;SHT31;63583;49.976;20.182;2022-11-20T13:40:57;-0.82;90.69
75022;SHT31;63583;49.976;20.182;2022-11-20T13:45:57;-1.02;91.13
75022;SHT31;63583;49.976;20.182;2022-11-20T13:48:26;-1.21;91.69
75022;SHT31;63583;49.976;20.182;2022-11-20T13:51:09;-1.16;92.09
75022;SHT31;63583;49.976;20.182;2022-11-20T14:02:20;-1.39;92.66
75022;SHT31;63583;49.976;20.182;2022-11-20T14:04:50;-1.43;93.30
75022;SHT31;63583;49.976;20.182;2022-11-20T14:07:19;-1.43;93.81
75022;SHT31;63583;49.976;20.182;2022-11-20T14:09:54;-1.42;93.05
75022;SHT31;63583;49.976;20.182;2022-11-20T14:12:40;-1.46;92.69
75022;SHT31;63583;49.976;20.182;2022-11-20T14:15:23;-1.46;92.70
75022;SHT31;63583;49.976;20.182;2022-11-20T14:17:52;-1.53;92.72
75022;SHT31;63583;49.976;20.182;2022-11-20T14:20:18;-1.53;92.77
75022;SHT31;63583;49.976;20.182;2022-11-20T14:22:53;-1.60;92.81
75022;SHT31;63583;49.976;20.182;2022-11-20T14:25:24;-1.60;92.83
75022;SHT31;63583;49.976;20.182;2022-11-20T14:27:55;-1.56;93.20
75022;SHT31;63583;49.976;20.182;2022-11-20T14:30:45;-1.50;93.49
75022;SHT31;63583;49.976;20.182;2022-11-20T14:33:13;-1.35;93.18
75022;SHT31;63583;49.976;20.182;2022-11-20T14:35:48;-1.54;93.32
75022;SHT31;63583;49.976;20.182;2022-11-20T14:38:21;-1.68;93.71
75022;SHT31;63583;49.976;20.182;2022-11-20T14:40:47;-1.74;94.24
75022;SHT31;63583;49.976;20.182;2022-11-20T14:43:26;-1.78;94.13
75022;SHT31;63583;49.976;20.182;2022-11-20T14:46:03;-1.75;94.02
75022;SHT31;63583;49.976;20.182;2022-11-20T14:48:45;-1.77;93.85
75022;SHT31;63583;49.976;20.182;2022-11-20T14:51:27;-1.85;93.72
75022;SHT31;63583;49.976;20.182;2022-11-20T14:53:54;-1.85;93.81
75022;SHT31;63583;49.976;20.182;2022-11-20T14:56:23;-1.88;93.75
75022;SHT31;63583;49.976;20.182;2022-11-20T14:58:57;-1.81;93.51
75022;SHT31;63583;49.976;20.182;2022-11-20T15:01:28;-1.92;93.61
75022;SHT31;63583;49.976;20.182;2022-11-20T15:04:07;-1.99;93.63
75022;SHT31;63583;49.976;20.182;2022-11-20T15:06:33;-2.07;93.97
75022;SHT31;63583;49.976;20.182;2022-11-20T15:08:59;-2.15;94.00
75022;SHT31;63583;49.976;20.182;2022-11-20T15:11:30;-2.19;94.15
75022;SHT31;63583;49.976;20.182;2022-11-20T15:13:58;-2.22;93.94
75022;SHT31;63583;49.976;20.182;2022-11-20T15:16:27;-2.28;93.96
75022;SHT31;63583;49.976;20.182;2022-11-20T15:18:54;-2.23;94.02
75022;SHT31;63583;49.976;20.182;2022-11-20T15:21:20;-2.28;94.12
75022;SHT31;63583;49.976;20.182;2022-11-20T15:23:47;-2.29;94.15
75022;SHT31;63583;49.976;20.182;2022-11-20T15:26:15;-2.29;94.33
75022;SHT31;63583;49.976;20.182;2022-11-20T15:28:45;-2.28;94.43
75022;SHT31;63583;49.976;20.182;2022-11-20T15:31:15;-2.30;94.44
75022;SHT31;63583;49.976;20.182;2022-11-20T15:33:41;-2.32;94.72
75022;SHT31;63583;49.976;20.182;2022-11-20T15:36:08;-2.29;94.64
75022;SHT31;63583;49.976;20.182;2022-11-20T15:38:35;-2.26;94.73
75022;SHT31;63583;49.976;20.182;2022-11-20T15:41:00;-2.25;94.70
75022;SHT31;63583;49.976;20.182;2022-11-20T15:43:26;-2.21;94.63
75022;SHT31;63583;49.976;20.182;2022-11-20T15:46:13;-2.16;94.40
75022;SHT31;63583;49.976;20.182;2022-11-20T15:48:42;-2.13;94.63
75022;SHT31;63583;49.976;20.182;2022-11-20T15:53:35;-2.05;94.74
75022;SHT31;63583;49.976;20.182;2022-11-20T15:56:01;-2.01;94.81
75022;SHT31;63583;49.976;20.182;2022-11-20T15:58:27;-1.98;94.84
75022;SHT31;63583;49.976;20.182;2022-11-20T16:00:53;-1.88;94.85
75022;SHT31;63583;49.976;20.182;2022-11-20T16:03:19;-1.79;94.80
75022;SHT31;63583;49.976;20.182;2022-11-20T16:05:45;-1.68;94.39
75022;SHT31;63583;49.976;20.182;2022-11-20T16:08:11;-1.66;94.14
75022;SHT31;63583;49.976;20.182;2022-11-20T16:10:36;-1.66;94.31
75022;SHT31;63583;49.976;20.182;2022-11-20T16:13:03;-1.66;94.54
75022;SHT31;63583;49.976;20.182;2022-11-20T16:15:52;-1.57;94.41
75022;SHT31;63583;49.976;20.182;2022-11-20T16:18:20;-1.57;94.76
75022;SHT31;63583;49.976;20.182;2022-11-20T16:20:48;-1.56;94.77
75022;SHT31;63583;49.976;20.182;2022-11-20T16:23:15;-1.54;94.89
75022;SHT31;63583;49.976;20.182;2022-11-20T16:25:42;-1.50;95.10
75022;SHT31;63583;49.976;20.182;2022-11-20T16:28:10;-1.44;95.15
75022;SHT31;63583;49.976;20.182;2022-11-20T16:30:36;-1.37;95.15
75022;SHT31;63583;49.976;20.182;2022-11-20T16:33:03;-1.30;95.02
75022;SHT31;63583;49.976;20.182;2022-11-20T16:35:30;-1.30;94.69